createdAt,value
2018-05-27T00:00:29.491Z,17.32
2018-05-27T00:01:00.669Z,17.31
2018-05-27T00:01:31.851Z,17.29
2018-05-27T00:02:03.079Z,17.29
2018-05-27T00:02:34.267Z,17.29
2018-05-27T00:03:05.460Z,17.30
2018-05-27T00:03:36.691Z,17.29
2018-05-27T00:04:07.877Z,17.27
2018-05-27T00:04:39.060Z,17.26
2018-05-27T00:05:10.241Z,17.27
2018-05-27T00:05:41.431Z,17.28
2018-05-27T00:06:12.641Z,17.29
2018-05-27T00:06:43.821Z,17.31
2018-05-27T00:07:15.041Z,17.32
2018-05-27T00:07:46.229Z,17.34
2018-05-27T00:08:17.412Z,17.38
2018-05-27T00:08:48.592Z,17.40
2018-05-27T00:09:19.778Z,17.42
2018-05-27T00:09:50.963Z,17.45
2018-05-27T00:10:22.152Z,17.45
2018-05-27T00:10:53.386Z,17.48
2018-05-27T00:11:24.589Z,17.50
2018-05-27T00:11:55.781Z,17.52
2018-05-27T00:12:26.969Z,17.55
2018-05-27T00:12:58.163Z,17.56
2018-05-27T00:13:29.361Z,17.58
2018-05-27T00:14:00.552Z,17.60
2018-05-27T00:14:31.745Z,17.61
2018-05-27T00:15:02.940Z,17.63
2018-05-27T00:15:34.150Z,17.63
2018-05-27T00:16:05.379Z,17.63
2018-05-27T00:16:36.564Z,17.63
2018-05-27T00:17:07.751Z,17.65
2018-05-27T00:17:39.257Z,17.66
2018-05-27T00:18:10.445Z,17.67
2018-05-27T00:18:41.626Z,17.64
2018-05-27T00:19:12.809Z,17.62
2018-05-27T00:19:43.991Z,17.61
2018-05-27T00:20:15.174Z,17.60
2018-05-27T00:20:46.349Z,17.64
2018-05-27T00:21:17.570Z,17.65
2018-05-27T00:21:48.748Z,17.69
2018-05-27T00:22:19.933Z,17.74
2018-05-27T00:22:51.185Z,17.75
2018-05-27T00:23:22.364Z,17.77
2018-05-27T00:23:53.545Z,17.76
2018-05-27T00:24:24.736Z,17.75
2018-05-27T00:24:55.917Z,17.74
2018-05-27T00:25:27.141Z,17.75
2018-05-27T00:25:58.330Z,17.75
2018-05-27T00:26:29.553Z,17.74
2018-05-27T00:27:00.733Z,17.71
2018-05-27T00:27:31.917Z,17.72
2018-05-27T00:28:03.106Z,17.70
2018-05-27T00:28:34.292Z,17.68
2018-05-27T00:29:05.477Z,17.66
2018-05-27T00:29:36.715Z,17.62
2018-05-27T00:30:07.940Z,17.60
2018-05-27T00:30:39.121Z,17.59
2018-05-27T00:31:10.553Z,17.57
2018-05-27T00:31:41.749Z,17.55
2018-05-27T00:32:12.932Z,17.51
2018-05-27T00:32:44.121Z,17.46
2018-05-27T00:33:15.302Z,17.46
2018-05-27T00:33:46.497Z,17.47
2018-05-27T00:34:17.725Z,17.47
2018-05-27T00:34:48.920Z,17.49
2018-05-27T00:35:20.148Z,17.47
2018-05-27T00:35:51.324Z,17.50
2018-05-27T00:36:22.510Z,17.49
2018-05-27T00:36:53.701Z,17.49
2018-05-27T00:37:24.885Z,17.48
2018-05-27T00:37:56.069Z,17.47
2018-05-27T00:38:27.252Z,17.47
2018-05-27T00:38:58.437Z,17.46
2018-05-27T00:39:29.652Z,17.47
2018-05-27T00:40:00.835Z,17.44
2018-05-27T00:40:32.053Z,17.43
2018-05-27T00:41:03.277Z,17.44
2018-05-27T00:41:34.464Z,17.48
2018-05-27T00:42:05.644Z,17.47
2018-05-27T00:42:36.834Z,17.46
2018-05-27T00:43:08.061Z,17.48
2018-05-27T00:43:39.243Z,17.48
2018-05-27T00:44:10.429Z,17.47
2018-05-27T00:44:41.612Z,17.44
2018-05-27T00:45:12.792Z,17.43
2018-05-27T00:45:43.983Z,17.43
2018-05-27T00:46:15.168Z,17.40
2018-05-27T00:46:46.358Z,17.38
2018-05-27T00:47:17.550Z,17.38
2018-05-27T00:47:48.772Z,17.35
2018-05-27T00:48:19.947Z,17.34
2018-05-27T00:48:51.133Z,17.32
2018-05-27T00:49:22.313Z,17.32
2018-05-27T00:49:53.578Z,17.32
2018-05-27T00:50:25.493Z,17.33
2018-05-27T00:50:56.675Z,17.31
2018-05-27T00:51:27.857Z,17.30
2018-05-27T00:51:59.037Z,17.29
2018-05-27T00:52:30.318Z,17.28
2018-05-27T00:53:01.502Z,17.28
2018-05-27T00:53:32.678Z,17.27
2018-05-27T00:54:03.865Z,17.24
2018-05-27T00:54:35.046Z,17.22
2018-05-27T00:55:06.225Z,17.20
2018-05-27T00:55:37.413Z,17.20
2018-05-27T00:56:08.608Z,17.19
2018-05-27T00:56:39.792Z,17.18
2018-05-27T00:57:10.975Z,17.16
2018-05-27T00:57:43.426Z,17.19
2018-05-27T00:58:14.608Z,17.22
2018-05-27T00:58:45.802Z,17.26
2018-05-27T00:59:16.990Z,17.27
2018-05-27T00:59:48.182Z,17.27
2018-05-27T01:00:19.370Z,17.24
2018-05-27T01:00:50.554Z,17.23
2018-05-27T01:01:21.747Z,17.20
2018-05-27T01:01:52.929Z,17.20
2018-05-27T01:02:24.165Z,17.18
2018-05-27T01:02:55.353Z,17.19
2018-05-27T01:03:26.545Z,17.17
2018-05-27T01:03:57.732Z,17.16
2018-05-27T01:04:28.936Z,17.14
2018-05-27T01:05:00.152Z,17.11
2018-05-27T01:05:31.357Z,17.08
2018-05-27T01:06:02.541Z,17.05
2018-05-27T01:06:33.761Z,17.04
2018-05-27T01:07:04.944Z,17.01
2018-05-27T01:07:36.137Z,16.99
2018-05-27T01:08:07.326Z,16.97
2018-05-27T01:08:38.512Z,16.94
2018-05-27T01:09:09.700Z,16.92
2018-05-27T01:09:40.884Z,16.90
2018-05-27T01:10:12.876Z,16.88
2018-05-27T01:10:44.057Z,16.88
2018-05-27T01:11:15.301Z,16.86
2018-05-27T01:11:46.548Z,16.86
2018-05-27T01:12:17.737Z,16.86
2018-05-27T01:12:48.924Z,16.86
2018-05-27T01:13:20.106Z,16.85
2018-05-27T01:13:51.290Z,16.86
2018-05-27T01:14:22.468Z,16.86
2018-05-27T01:14:53.653Z,16.86
2018-05-27T01:15:24.837Z,16.87
2018-05-27T01:15:56.025Z,16.87
2018-05-27T01:16:27.249Z,16.89
2018-05-27T01:16:58.432Z,16.89
2018-05-27T01:17:29.650Z,16.88
2018-05-27T01:18:00.830Z,16.89
2018-05-27T01:18:32.044Z,16.90
2018-05-27T01:19:03.233Z,16.92
2018-05-27T01:19:34.410Z,16.93
2018-05-27T01:20:05.593Z,16.95
2018-05-27T01:20:36.772Z,16.97
2018-05-27T01:21:07.954Z,16.99
2018-05-27T01:21:39.146Z,17.01
2018-05-27T01:22:10.404Z,17.04
2018-05-27T01:22:41.592Z,17.07
2018-05-27T01:23:12.783Z,17.08
2018-05-27T01:23:43.964Z,17.09
2018-05-27T01:24:15.140Z,17.09
2018-05-27T01:24:46.321Z,17.10
2018-05-27T01:25:17.498Z,17.10
2018-05-27T01:25:48.684Z,17.10
2018-05-27T01:26:19.873Z,17.10
2018-05-27T01:26:51.124Z,17.07
2018-05-27T01:27:22.943Z,17.07
2018-05-27T01:27:55.033Z,17.10
2018-05-27T01:28:26.216Z,17.10
2018-05-27T01:28:57.397Z,17.10
2018-05-27T01:29:28.573Z,17.13
2018-05-27T01:29:59.749Z,17.17
2018-05-27T01:30:30.960Z,17.16
2018-05-27T01:31:02.145Z,17.17
2018-05-27T01:31:33.338Z,17.16
2018-05-27T01:32:04.552Z,17.17
2018-05-27T01:32:35.737Z,17.17
2018-05-27T01:33:06.920Z,17.18
2018-05-27T01:33:38.100Z,17.20
2018-05-27T01:34:09.287Z,17.20
2018-05-27T01:34:40.460Z,17.22
2018-05-27T01:35:11.643Z,17.21
2018-05-27T01:35:42.857Z,17.19
2018-05-27T01:36:14.046Z,17.17
2018-05-27T01:36:45.234Z,17.15
2018-05-27T01:37:16.458Z,17.12
2018-05-27T01:37:47.642Z,17.13
2018-05-27T01:38:18.833Z,17.09
2018-05-27T01:38:50.041Z,17.07
2018-05-27T01:39:21.221Z,17.06
2018-05-27T01:39:52.452Z,17.06
2018-05-27T01:40:23.645Z,17.05
2018-05-27T01:40:54.849Z,17.05
2018-05-27T01:41:26.040Z,17.05
2018-05-27T01:41:57.221Z,17.06
2018-05-27T01:42:28.408Z,17.06
2018-05-27T01:42:59.605Z,17.06
2018-05-27T01:43:30.805Z,17.04
2018-05-27T01:44:03.217Z,17.02
2018-05-27T01:44:34.967Z,17.00
2018-05-27T01:45:06.160Z,17.02
2018-05-27T01:45:37.402Z,17.02
2018-05-27T01:46:08.644Z,17.02
2018-05-27T01:46:39.826Z,17.03
2018-05-27T01:47:11.005Z,17.04
2018-05-27T01:47:42.265Z,17.04
2018-05-27T01:48:13.445Z,17.04
2018-05-27T01:48:45.253Z,17.03
2018-05-27T01:49:16.429Z,17.05
2018-05-27T01:49:47.612Z,17.06
2018-05-27T01:50:18.792Z,17.07
2018-05-27T01:50:49.994Z,17.07
2018-05-27T01:51:21.181Z,17.08
2018-05-27T01:51:52.364Z,17.10
2018-05-27T01:52:23.544Z,17.12
2018-05-27T01:52:54.771Z,17.14
2018-05-27T01:53:25.957Z,17.15
2018-05-27T01:53:57.141Z,17.17
2018-05-27T01:54:28.321Z,17.19
2018-05-27T01:54:59.502Z,17.19
2018-05-27T01:55:30.684Z,17.17
2018-05-27T01:56:01.869Z,17.15
2018-05-27T01:56:33.052Z,17.09
2018-05-27T01:57:04.270Z,17.07
2018-05-27T01:57:35.454Z,17.07
2018-05-27T01:58:06.633Z,17.05
2018-05-27T01:58:37.813Z,17.02
2018-05-27T01:59:09.051Z,17.00
2018-05-27T01:59:40.236Z,16.68
2018-05-27T02:00:11.423Z,16.95
2018-05-27T02:00:42.613Z,16.96
2018-05-27T02:01:13.798Z,16.95
2018-05-27T02:01:44.989Z,16.94
2018-05-27T02:02:16.185Z,16.91
2018-05-27T02:02:47.371Z,16.90
2018-05-27T02:03:18.560Z,16.90
2018-05-27T02:03:49.751Z,16.89
2018-05-27T02:04:20.987Z,16.89
2018-05-27T02:04:52.169Z,16.88
2018-05-27T02:05:23.357Z,16.87
2018-05-27T02:05:54.578Z,16.86
2018-05-27T02:06:25.759Z,16.85
2018-05-27T02:06:56.946Z,16.84
2018-05-27T02:07:28.145Z,16.83
2018-05-27T02:07:59.338Z,16.82
2018-05-27T02:08:30.520Z,16.81
2018-05-27T02:09:01.705Z,16.82
2018-05-27T02:09:32.899Z,16.83
2018-05-27T02:10:04.092Z,16.85
2018-05-27T02:10:35.306Z,16.88
2018-05-27T02:11:06.498Z,16.90
2018-05-27T02:11:37.726Z,16.90
2018-05-27T02:12:08.909Z,16.91
2018-05-27T02:12:40.097Z,16.92
2018-05-27T02:13:11.901Z,16.95
2018-05-27T02:13:43.091Z,16.97
2018-05-27T02:14:14.265Z,16.97
2018-05-27T02:14:45.441Z,16.95
2018-05-27T02:15:16.634Z,16.95
2018-05-27T02:15:47.825Z,16.97
2018-05-27T02:16:19.064Z,16.97
2018-05-27T02:16:50.244Z,17.00
2018-05-27T02:17:21.469Z,17.02
2018-05-27T02:17:52.651Z,17.05
2018-05-27T02:18:23.822Z,17.05
2018-05-27T02:18:55.023Z,17.05
2018-05-27T02:19:26.204Z,17.06
2018-05-27T02:19:57.395Z,17.08
2018-05-27T02:20:28.587Z,17.08
2018-05-27T02:20:59.787Z,17.12
2018-05-27T02:21:30.965Z,17.12
2018-05-27T02:22:02.152Z,17.12
2018-05-27T02:22:33.374Z,17.10
2018-05-27T02:23:04.549Z,17.10
2018-05-27T02:23:35.744Z,17.09
2018-05-27T02:24:06.950Z,17.09
2018-05-27T02:24:38.138Z,17.10
2018-05-27T02:25:09.319Z,17.11
2018-05-27T02:25:40.502Z,17.10
2018-05-27T02:26:11.680Z,17.14
2018-05-27T02:26:42.869Z,17.16
2018-05-27T02:27:14.091Z,17.15
2018-05-27T02:27:45.289Z,17.12
2018-05-27T02:28:16.480Z,17.09
2018-05-27T02:28:47.661Z,17.07
2018-05-27T02:29:18.851Z,17.06
2018-05-27T02:29:50.034Z,17.07
2018-05-27T02:30:21.218Z,17.08
2018-05-27T02:30:52.441Z,17.09
2018-05-27T02:31:23.625Z,17.09
2018-05-27T02:31:54.855Z,17.10
2018-05-27T02:32:26.041Z,17.13
2018-05-27T02:32:57.221Z,17.15
2018-05-27T02:33:28.437Z,17.15
2018-05-27T02:33:59.620Z,17.17
2018-05-27T02:34:30.813Z,17.17
2018-05-27T02:35:02.018Z,17.18
2018-05-27T02:35:33.213Z,17.22
2018-05-27T02:36:04.398Z,17.24
2018-05-27T02:36:35.594Z,17.26
2018-05-27T02:37:06.781Z,17.26
2018-05-27T02:37:37.964Z,17.24
2018-05-27T02:38:09.153Z,17.23
2018-05-27T02:38:40.413Z,17.22
2018-05-27T02:39:11.596Z,17.20
2018-05-27T02:39:42.781Z,17.18
2018-05-27T02:40:13.962Z,17.19
2018-05-27T02:40:45.163Z,17.17
2018-05-27T02:41:16.349Z,17.15
2018-05-27T02:41:47.537Z,17.14
2018-05-27T02:42:18.723Z,17.11
2018-05-27T02:42:49.917Z,17.10
2018-05-27T02:43:21.100Z,17.09
2018-05-27T02:43:52.333Z,17.11
2018-05-27T02:44:23.518Z,17.11
2018-05-27T02:44:54.732Z,17.08
2018-05-27T02:45:25.922Z,17.10
2018-05-27T02:45:57.109Z,17.10
2018-05-27T02:46:28.317Z,17.10
2018-05-27T02:46:59.516Z,17.12
2018-05-27T02:47:30.708Z,17.12
2018-05-27T02:48:01.942Z,17.12
2018-05-27T02:48:33.125Z,17.15
2018-05-27T02:49:04.369Z,17.16
2018-05-27T02:49:35.556Z,17.17
2018-05-27T02:50:06.737Z,17.18
2018-05-27T02:50:37.928Z,17.18
2018-05-27T02:51:09.125Z,17.17
2018-05-27T02:51:40.348Z,17.16
2018-05-27T02:52:11.525Z,17.18
2018-05-27T02:52:42.710Z,17.19
2018-05-27T02:53:13.902Z,17.18
2018-05-27T02:53:45.137Z,17.18
2018-05-27T02:54:16.328Z,17.18
2018-05-27T02:54:47.571Z,17.18
2018-05-27T02:55:18.757Z,17.19
2018-05-27T02:55:49.937Z,17.20
2018-05-27T02:56:21.120Z,17.21
2018-05-27T02:56:52.298Z,17.22
2018-05-27T02:57:23.517Z,17.21
2018-05-27T02:57:54.743Z,17.22
2018-05-27T02:58:25.945Z,17.22
2018-05-27T02:58:57.129Z,17.23
2018-05-27T02:59:28.304Z,17.23
2018-05-27T02:59:59.491Z,17.24
2018-05-27T03:00:30.681Z,17.26
2018-05-27T03:01:01.904Z,17.28
2018-05-27T03:01:33.083Z,17.30
2018-05-27T03:02:04.261Z,17.33
2018-05-27T03:02:35.448Z,17.36
2018-05-27T03:03:06.638Z,17.37
2018-05-27T03:03:37.818Z,17.42
2018-05-27T03:04:09.001Z,17.46
2018-05-27T03:04:40.186Z,17.49
2018-05-27T03:05:11.373Z,17.51
2018-05-27T03:05:42.595Z,17.57
2018-05-27T03:06:13.784Z,17.61
2018-05-27T03:06:44.978Z,17.66
2018-05-27T03:07:16.171Z,17.69
2018-05-27T03:07:47.345Z,17.70
2018-05-27T03:08:18.525Z,17.70
2018-05-27T03:08:49.910Z,17.71
2018-05-27T03:09:21.127Z,17.74
2018-05-27T03:09:53.933Z,17.77
2018-05-27T03:10:25.153Z,17.83
2018-05-27T03:10:56.341Z,17.86
2018-05-27T03:11:27.529Z,17.88
2018-05-27T03:11:58.728Z,17.91
2018-05-27T03:12:29.910Z,17.92
2018-05-27T03:13:01.093Z,17.96
2018-05-27T03:13:32.287Z,17.98
2018-05-27T03:14:03.528Z,17.97
2018-05-27T03:14:34.740Z,17.97
2018-05-27T03:15:07.026Z,17.95
2018-05-27T03:15:38.213Z,17.97
2018-05-27T03:16:09.401Z,17.98
2018-05-27T03:16:40.660Z,18.00
2018-05-27T03:17:11.833Z,18.04
2018-05-27T03:17:43.057Z,18.07
2018-05-27T03:18:14.241Z,18.08
2018-05-27T03:18:45.422Z,18.11
2018-05-27T03:19:16.616Z,18.14
2018-05-27T03:19:47.798Z,18.14
2018-05-27T03:20:19.690Z,18.14
2018-05-27T03:20:50.930Z,18.14
2018-05-27T03:21:22.122Z,18.15
2018-05-27T03:21:53.315Z,18.14
2018-05-27T03:22:24.497Z,18.15
2018-05-27T03:22:55.730Z,18.18
2018-05-27T03:23:26.920Z,18.19
2018-05-27T03:23:58.109Z,18.20
2018-05-27T03:24:29.293Z,18.25
2018-05-27T03:25:00.478Z,18.29
2018-05-27T03:25:31.661Z,18.32
2018-05-27T03:26:02.841Z,18.33
2018-05-27T03:26:34.034Z,18.32
2018-05-27T03:27:05.225Z,18.31
2018-05-27T03:27:36.417Z,18.29
2018-05-27T03:28:07.643Z,18.27
2018-05-27T03:28:38.839Z,18.25
2018-05-27T03:29:11.099Z,18.23
2018-05-27T03:29:42.284Z,18.22
2018-05-27T03:30:13.464Z,18.22
2018-05-27T03:30:44.653Z,18.22
2018-05-27T03:31:15.829Z,18.21
2018-05-27T03:31:47.060Z,18.22
2018-05-27T03:32:18.257Z,18.24
2018-05-27T03:32:49.433Z,18.28
2018-05-27T03:33:20.623Z,18.30
2018-05-27T03:33:51.847Z,18.30
2018-05-27T03:34:23.033Z,18.25
2018-05-27T03:34:54.223Z,18.19
2018-05-27T03:35:25.425Z,18.13
2018-05-27T03:35:56.649Z,18.12
2018-05-27T03:36:27.839Z,18.09
2018-05-27T03:36:59.031Z,18.08
2018-05-27T03:37:30.208Z,18.07
2018-05-27T03:38:01.410Z,18.07
2018-05-27T03:38:32.601Z,18.12
2018-05-27T03:39:03.863Z,18.17
2018-05-27T03:39:35.064Z,18.23
2018-05-27T03:40:06.273Z,18.26
2018-05-27T03:40:37.461Z,18.29
2018-05-27T03:41:08.662Z,18.32
2018-05-27T03:41:39.842Z,18.35
2018-05-27T03:42:11.061Z,18.39
2018-05-27T03:42:42.506Z,18.40
2018-05-27T03:43:13.696Z,18.39
2018-05-27T03:43:44.882Z,18.41
2018-05-27T03:44:16.071Z,18.41
2018-05-27T03:44:47.299Z,18.39
2018-05-27T03:45:19.264Z,18.38
2018-05-27T03:45:50.445Z,18.35
2018-05-27T03:46:21.669Z,18.35
2018-05-27T03:46:53.307Z,18.35
2018-05-27T03:47:25.562Z,18.33
2018-05-27T03:47:56.740Z,18.37
2018-05-27T03:48:27.920Z,18.41
2018-05-27T03:48:59.111Z,18.42
2018-05-27T03:49:30.305Z,18.44
2018-05-27T03:50:01.525Z,18.43
2018-05-27T03:50:32.732Z,18.41
2018-05-27T03:51:03.921Z,18.39
2018-05-27T03:51:35.105Z,18.41
2018-05-27T03:52:06.292Z,18.35
2018-05-27T03:52:37.478Z,18.39
2018-05-27T03:53:08.660Z,18.43
2018-05-27T03:53:39.848Z,18.43
2018-05-27T03:54:11.072Z,18.43
2018-05-27T03:54:42.252Z,18.45
2018-05-27T03:55:13.437Z,18.48
2018-05-27T03:55:44.672Z,18.47
2018-05-27T03:56:15.854Z,18.53
2018-05-27T03:56:47.033Z,18.56
2018-05-27T03:57:18.217Z,18.56
2018-05-27T03:57:49.408Z,18.56
2018-05-27T03:58:20.588Z,18.56
2018-05-27T03:58:51.769Z,18.53
2018-05-27T03:59:22.946Z,18.53
2018-05-27T03:59:54.137Z,18.53
2018-05-27T04:00:25.324Z,18.57
2018-05-27T04:00:56.546Z,18.57
2018-05-27T04:01:27.733Z,18.60
2018-05-27T04:01:58.938Z,18.60
2018-05-27T04:02:30.126Z,18.59
2018-05-27T04:03:01.319Z,18.58
2018-05-27T04:03:32.531Z,18.54
2018-05-27T04:04:03.782Z,18.48
2018-05-27T04:04:34.982Z,18.37
2018-05-27T04:05:06.207Z,18.32
2018-05-27T04:05:37.397Z,18.28
2018-05-27T04:06:08.591Z,18.26
2018-05-27T04:06:39.772Z,18.28
2018-05-27T04:07:11.010Z,18.32
2018-05-27T04:07:42.210Z,18.30
2018-05-27T04:08:13.397Z,18.26
2018-05-27T04:08:44.586Z,18.21
2018-05-27T04:09:15.780Z,18.17
2018-05-27T04:09:46.969Z,18.14
2018-05-27T04:10:18.160Z,18.17
2018-05-27T04:10:49.353Z,18.21
2018-05-27T04:11:20.532Z,18.26
2018-05-27T04:11:51.712Z,18.32
2018-05-27T04:12:22.941Z,18.38
2018-05-27T04:12:54.133Z,18.43
2018-05-27T04:13:25.313Z,18.49
2018-05-27T04:13:56.507Z,18.59
2018-05-27T04:14:27.709Z,18.67
2018-05-27T04:14:58.923Z,18.79
2018-05-27T04:15:30.115Z,18.92
2018-05-27T04:16:01.316Z,19.01
2018-05-27T04:16:32.550Z,19.11
2018-05-27T04:17:03.756Z,19.20
2018-05-27T04:17:34.947Z,19.26
2018-05-27T04:18:06.214Z,19.31
2018-05-27T04:18:37.404Z,19.37
2018-05-27T04:19:08.598Z,19.40
2018-05-27T04:19:39.795Z,19.40
2018-05-27T04:20:10.972Z,19.45
2018-05-27T04:20:42.158Z,19.47
2018-05-27T04:21:13.361Z,19.50
2018-05-27T04:21:44.547Z,19.54
2018-05-27T04:22:15.729Z,19.56
2018-05-27T04:22:46.905Z,19.58
2018-05-27T04:23:18.181Z,19.61
2018-05-27T04:23:49.409Z,19.66
2018-05-27T04:24:20.602Z,19.73
2018-05-27T04:24:51.792Z,19.56
2018-05-27T04:25:22.977Z,19.87
2018-05-27T04:25:54.170Z,19.92
2018-05-27T04:26:25.353Z,19.94
2018-05-27T04:26:56.543Z,19.99
2018-05-27T04:27:27.757Z,20.00
2018-05-27T04:27:58.948Z,20.01
2018-05-27T04:28:30.207Z,20.01
2018-05-27T04:29:01.431Z,19.98
2018-05-27T04:29:32.621Z,19.93
2018-05-27T04:30:03.812Z,19.89
2018-05-27T04:30:35.000Z,19.91
2018-05-27T04:31:06.184Z,19.93
2018-05-27T04:31:37.368Z,19.95
2018-05-27T04:32:08.552Z,19.95
2018-05-27T04:32:39.736Z,19.97
2018-05-27T04:33:10.930Z,19.98
2018-05-27T04:33:42.113Z,19.95
2018-05-27T04:34:13.350Z,19.89
2018-05-27T04:34:44.561Z,19.83
2018-05-27T04:35:15.741Z,19.81
2018-05-27T04:35:46.969Z,19.84
2018-05-27T04:36:18.150Z,19.86
2018-05-27T04:36:49.342Z,19.87
2018-05-27T04:37:20.538Z,19.87
2018-05-27T04:37:51.725Z,19.85
2018-05-27T04:38:22.973Z,19.87
2018-05-27T04:38:54.154Z,19.89
2018-05-27T04:39:25.337Z,19.88
2018-05-27T04:39:56.516Z,19.90
2018-05-27T04:40:27.713Z,19.86
2018-05-27T04:40:58.909Z,19.86
2018-05-27T04:41:30.104Z,19.84
2018-05-27T04:42:01.292Z,19.80
2018-05-27T04:42:32.485Z,19.78
2018-05-27T04:43:03.721Z,19.75
2018-05-27T04:43:34.914Z,19.77
2018-05-27T04:44:06.098Z,19.79
2018-05-27T04:44:37.278Z,19.81
2018-05-27T04:45:08.457Z,19.85
2018-05-27T04:45:39.638Z,19.87
2018-05-27T04:46:10.821Z,19.90
2018-05-27T04:46:42.009Z,19.91
2018-05-27T04:47:13.199Z,19.91
2018-05-27T04:47:44.385Z,19.92
2018-05-27T04:48:15.625Z,19.96
2018-05-27T04:48:46.809Z,20.01
2018-05-27T04:49:17.992Z,20.03
2018-05-27T04:49:49.176Z,20.03
2018-05-27T04:50:20.373Z,20.08
2018-05-27T04:50:51.565Z,20.12
2018-05-27T04:51:22.765Z,20.17
2018-05-27T04:51:53.977Z,20.19
2018-05-27T04:52:25.509Z,20.13
2018-05-27T04:52:57.011Z,20.19
2018-05-27T04:53:28.292Z,20.23
2018-05-27T04:53:59.653Z,20.27
2018-05-27T04:54:30.903Z,20.26
2018-05-27T04:55:02.117Z,20.19
2018-05-27T04:55:33.316Z,20.13
2018-05-27T04:56:04.501Z,20.14
2018-05-27T04:56:35.691Z,20.13
2018-05-27T04:57:06.880Z,20.16
2018-05-27T04:57:38.069Z,20.17
2018-05-27T04:58:09.266Z,20.17
2018-05-27T04:58:40.508Z,20.17
2018-05-27T04:59:11.698Z,20.19
2018-05-27T04:59:42.896Z,20.25
2018-05-27T05:00:14.099Z,20.30
2018-05-27T05:00:45.285Z,20.36
2018-05-27T05:01:16.474Z,20.43
2018-05-27T05:01:47.665Z,20.58
2018-05-27T05:02:18.893Z,20.80
2018-05-27T05:02:50.080Z,20.95
2018-05-27T05:03:21.280Z,21.08
2018-05-27T05:03:52.469Z,21.19
2018-05-27T05:04:23.681Z,21.27
2018-05-27T05:04:54.869Z,21.37
2018-05-27T05:05:26.056Z,21.42
2018-05-27T05:05:57.245Z,21.47
2018-05-27T05:06:28.434Z,21.52
2018-05-27T05:06:59.668Z,21.56
2018-05-27T05:07:30.866Z,21.60
2018-05-27T05:08:02.065Z,21.58
2018-05-27T05:08:33.259Z,21.53
2018-05-27T05:09:04.449Z,21.42
2018-05-27T05:09:35.653Z,21.32
2018-05-27T05:10:06.857Z,21.32
2018-05-27T05:10:38.050Z,21.31
2018-05-27T05:11:09.291Z,21.33
2018-05-27T05:11:40.513Z,21.38
2018-05-27T05:12:11.721Z,21.45
2018-05-27T05:12:42.905Z,21.46
2018-05-27T05:13:14.091Z,21.51
2018-05-27T05:13:45.300Z,21.52
2018-05-27T05:14:16.497Z,21.54
2018-05-27T05:14:47.733Z,21.62
2018-05-27T05:15:18.921Z,21.65
2018-05-27T05:15:50.108Z,21.67
2018-05-27T05:16:21.357Z,21.65
2018-05-27T05:16:52.566Z,21.72
2018-05-27T05:17:23.768Z,21.85
2018-05-27T05:17:54.970Z,22.12
2018-05-27T05:18:26.165Z,22.54
2018-05-27T05:18:57.360Z,23.08
2018-05-27T05:19:28.554Z,23.48
2018-05-27T05:19:59.761Z,23.77
2018-05-27T05:20:30.953Z,24.05
2018-05-27T05:21:02.153Z,24.37
2018-05-27T05:21:33.370Z,24.81
2018-05-27T05:22:04.612Z,25.21
2018-05-27T05:22:35.783Z,25.50
2018-05-27T05:23:07.093Z,25.86
2018-05-27T05:23:38.285Z,26.19
2018-05-27T05:24:09.467Z,26.53
2018-05-27T05:24:40.644Z,26.85
2018-05-27T05:25:11.825Z,27.17
2018-05-27T05:25:43.013Z,27.42
2018-05-27T05:26:14.197Z,27.61
2018-05-27T05:26:45.373Z,27.63
2018-05-27T05:27:16.553Z,27.56
2018-05-27T05:27:47.784Z,27.63
2018-05-27T05:28:18.979Z,27.80
2018-05-27T05:28:50.153Z,27.93
2018-05-27T05:29:21.342Z,28.09
2018-05-27T05:29:52.520Z,28.26
2018-05-27T05:30:23.704Z,28.08
2018-05-27T05:30:54.885Z,28.22
2018-05-27T05:31:26.067Z,28.28
2018-05-27T05:31:57.244Z,28.26
2018-05-27T05:32:28.421Z,28.29
2018-05-27T05:32:59.637Z,28.25
2018-05-27T05:33:30.826Z,28.16
2018-05-27T05:34:02.038Z,28.13
2018-05-27T05:34:33.217Z,28.00
2018-05-27T05:35:04.393Z,28.00
2018-05-27T05:35:35.564Z,27.95
2018-05-27T05:36:06.733Z,27.95
2018-05-27T05:36:37.905Z,27.98
2018-05-27T05:37:09.141Z,28.02
2018-05-27T05:37:40.318Z,28.12
2018-05-27T05:38:11.544Z,28.13
2018-05-27T05:38:42.772Z,28.11
2018-05-27T05:39:13.948Z,27.85
2018-05-27T05:39:45.124Z,28.04
2018-05-27T05:40:16.320Z,28.01
2018-05-27T05:40:47.504Z,27.97
2018-05-27T05:41:18.734Z,28.00
2018-05-27T05:41:49.909Z,28.02
2018-05-27T05:42:21.091Z,28.06
2018-05-27T05:42:52.269Z,28.01
2018-05-27T05:43:23.484Z,27.78
2018-05-27T05:43:54.665Z,27.49
2018-05-27T05:44:25.893Z,27.23
2018-05-27T05:44:57.105Z,27.03
2018-05-27T05:45:28.281Z,26.91
2018-05-27T05:45:59.464Z,26.78
2018-05-27T05:46:30.646Z,26.71
2018-05-27T05:47:01.837Z,26.60
2018-05-27T05:47:33.018Z,26.39
2018-05-27T05:48:04.209Z,26.22
2018-05-27T05:48:35.385Z,26.13
2018-05-27T05:49:06.568Z,26.03
2018-05-27T05:49:37.794Z,26.01
2018-05-27T05:50:08.984Z,25.99
2018-05-27T05:50:40.156Z,26.01
2018-05-27T05:51:11.338Z,26.01
2018-05-27T05:51:42.534Z,26.05
2018-05-27T05:52:13.712Z,26.09
2018-05-27T05:52:44.889Z,26.05
2018-05-27T05:53:16.069Z,26.03
2018-05-27T05:53:47.260Z,25.87
2018-05-27T05:54:18.445Z,25.74
2018-05-27T05:54:49.666Z,25.71
2018-05-27T05:55:20.881Z,25.67
2018-05-27T05:55:52.084Z,25.70
2018-05-27T05:56:23.268Z,25.75
2018-05-27T05:56:54.463Z,25.74
2018-05-27T05:57:25.657Z,25.73
2018-05-27T05:57:56.845Z,25.78
2018-05-27T05:58:28.029Z,25.79
2018-05-27T05:58:59.216Z,25.82
2018-05-27T05:59:30.396Z,25.94
2018-05-27T06:00:01.627Z,25.96
2018-05-27T06:00:32.812Z,25.94
2018-05-27T06:01:03.991Z,25.88
2018-05-27T06:01:35.169Z,25.83
2018-05-27T06:02:06.458Z,25.91
2018-05-27T06:02:37.646Z,25.94
2018-05-27T06:03:08.831Z,25.89
2018-05-27T06:03:40.020Z,25.90
2018-05-27T06:04:11.201Z,25.90
2018-05-27T06:04:42.386Z,25.94
2018-05-27T06:05:13.616Z,25.95
2018-05-27T06:05:44.797Z,26.03
2018-05-27T06:06:15.983Z,26.00
2018-05-27T06:06:47.164Z,26.08
2018-05-27T06:07:18.343Z,26.14
2018-05-27T06:07:49.540Z,26.14
2018-05-27T06:08:20.730Z,26.15
2018-05-27T06:08:51.910Z,26.11
2018-05-27T06:09:23.093Z,26.05
2018-05-27T06:09:54.277Z,26.07
2018-05-27T06:10:25.510Z,26.23
2018-05-27T06:10:56.693Z,26.20
2018-05-27T06:11:27.872Z,26.29
2018-05-27T06:11:59.053Z,26.27
2018-05-27T06:12:30.230Z,26.31
2018-05-27T06:13:01.427Z,26.30
2018-05-27T06:13:32.650Z,26.22
2018-05-27T06:14:03.813Z,26.07
2018-05-27T06:14:34.989Z,25.97
2018-05-27T06:15:06.169Z,25.83
2018-05-27T06:15:37.396Z,25.72
2018-05-27T06:16:08.589Z,25.75
2018-05-27T06:16:39.778Z,25.82
2018-05-27T06:17:11.011Z,25.86
2018-05-27T06:17:42.198Z,25.92
2018-05-27T06:18:13.377Z,26.03
2018-05-27T06:18:44.565Z,26.13
2018-05-27T06:19:15.771Z,26.24
2018-05-27T06:19:46.952Z,26.21
2018-05-27T06:20:18.131Z,26.23
2018-05-27T06:20:49.310Z,26.21
2018-05-27T06:21:20.490Z,26.37
2018-05-27T06:21:51.672Z,26.49
2018-05-27T06:22:22.885Z,26.58
2018-05-27T06:22:54.076Z,26.69
2018-05-27T06:23:25.270Z,26.68
2018-05-27T06:23:56.452Z,26.67
2018-05-27T06:24:27.642Z,26.59
2018-05-27T06:24:58.817Z,26.53
2018-05-27T06:25:29.997Z,26.49
2018-05-27T06:26:01.216Z,26.48
2018-05-27T06:26:32.436Z,26.46
2018-05-27T06:27:03.621Z,26.50
2018-05-27T06:27:34.814Z,26.48
2018-05-27T06:28:05.998Z,26.54
2018-05-27T06:28:37.194Z,26.51
2018-05-27T06:29:08.378Z,26.44
2018-05-27T06:29:39.571Z,26.48
2018-05-27T06:30:10.759Z,26.44
2018-05-27T06:30:41.973Z,26.31
2018-05-27T06:31:13.151Z,26.28
2018-05-27T06:31:44.328Z,26.29
2018-05-27T06:32:15.509Z,26.38
2018-05-27T06:32:46.693Z,26.49
2018-05-27T06:33:20.476Z,26.59
2018-05-27T06:33:51.659Z,26.66
2018-05-27T06:34:22.847Z,26.71
2018-05-27T06:34:54.070Z,26.75
2018-05-27T06:35:25.245Z,26.75
2018-05-27T06:35:56.445Z,26.64
2018-05-27T06:36:27.639Z,26.62
2018-05-27T06:36:58.818Z,26.58
2018-05-27T06:37:30.009Z,26.49
2018-05-27T06:38:01.198Z,26.42
2018-05-27T06:38:32.379Z,26.38
2018-05-27T06:39:03.557Z,26.39
2018-05-27T06:39:34.792Z,26.39
2018-05-27T06:40:06.104Z,26.40
2018-05-27T06:40:37.285Z,26.44
2018-05-27T06:41:08.466Z,26.50
2018-05-27T06:41:39.654Z,26.58
2018-05-27T06:42:10.840Z,26.65